Latest Weather Observations for Pallamana

IDS60901

Issued at 5:11 pm CDT Wednesday 28 January 2015 (issued every 10 minutes, with the page automatically refreshed every 10 minutes)

About weather observations | Map of Adelaide area stations | Latest observations for Adelaide area | Other Formats
Station Details ID: 024584 Name: PALLAMANA AERODROME Lat: -35.06 Lon: 139.23 Height: 45.0 m
Data from the previous 72 hours. | See also: Recent months at Pallamana
Date/Time
CDT
Tmp

°C
App
Tmp
°C
Dew
Point
°C
Rel
Hum
%
Delta-T

°C
Wind Press
QNH
hPa
Press
MSL
hPa
Rain
since
9 am
mm
Dir
 
Spd
km/h
Gust
km/h
Spd
kts
Gust
kts
28/05:00pm 23.0 16.8 10.0 43 7.1 SSW 33 46 18 25 1015.8 1015.6 0.0
28/04:30pm 23.2 15.9 8.8 39 7.7 SSW 37 50 20 27 1015.8 1015.6 0.0
28/04:00pm 24.1 17.5 8.6 37 8.3 SSW 33 50 18 27 1016.1 1015.9 0.0
28/03:30pm 23.5 16.8 7.4 35 8.4 SSW 32 41 17 22 1016.4 1016.2 0.0
28/03:00pm 23.7 16.3 6.9 34 8.7 SSW 35 43 19 23 1016.5 1016.3 0.0
28/02:30pm 23.8 18.6 5.3 30 9.3 S 22 35 12 19 1016.7 1016.5 0.0
28/02:00pm 23.3 17.3 5.4 31 9.0 SSW 26 39 14 21 1016.9 1016.7 0.0
28/01:30pm 24.0 18.8 5.4 30 9.4 S 22 33 12 18 1017.3 1017.1 0.0
28/01:00pm 22.7 17.7 4.4 30 9.0 S 20 37 11 20 1017.3 1017.1 0.0
28/12:30pm 22.2 16.7 3.8 30 8.9 SSE 22 37 12 20 1017.7 1017.5 0.0
28/12:00pm 21.0 15.9 4.3 33 8.1 SSE 20 28 11 15 1018.1 1017.9 0.0
28/11:30am 20.3 15.5 5.5 38 7.3 SSE 20 37 11 20 1018.4 1018.2 0.0
28/11:00am 19.6 14.8 5.8 40 6.8 SSE 20 35 11 19 1018.8 1018.6 0.0
28/10:30am 18.1 13.3 5.8 44 6.0 SSE 20 32 11 17 1018.9 1018.7 0.0
28/10:00am 17.9 12.9 6.3 46 5.7 SSE 22 32 12 17 1019.0 1018.8 0.0
28/09:30am 16.0 10.2 6.1 52 4.8 SE 26 35 14 19 1019.1 1018.9 0.0
28/09:00am 15.7 10.0 6.5 54 4.5 SSE 26 37 14 20 1019.1 1018.9 0.0
28/08:30am 15.1 9.8 6.7 57 4.1 SSE 24 32 13 17 1019.1 1018.9 0.0
28/08:00am 14.0 9.6 7.5 65 3.2 SSE 20 30 11 16 1019.0 1018.8 0.0
28/07:30am 12.5 8.3 7.6 72 2.4 SSE 19 24 10 13 1018.7 1018.5 0.0
28/07:00am 11.5 8.4 7.3 75 2.0 S 13 17 7 9 1018.3 1018.1 0.0
28/06:30am 11.2 7.3 7.2 76 1.9 S 17 22 9 12 1018.0 1017.8 0.0
28/06:00am 11.4 7.1 7.0 74 2.1 S 19 24 10 13 1017.6 1017.4 0.0
28/05:30am 11.6 7.6 6.8 72 2.3 S 17 22 9 12 1017.3 1017.1 0.0
28/05:00am 11.5 7.4 6.4 71 2.4 S 17 20 9 11 1017.3 1017.1 0.0
28/04:30am 11.3 7.6 6.2 71 2.4 S 15 20 8 11 1017.5 1017.3 0.0
28/04:00am 11.9 7.8 6.2 68 2.7 S 17 24 9 13 1017.6 1017.4 0.0
28/03:30am 12.4 8.3 6.3 66 2.9 S 17 24 9 13 1017.7 1017.5 0.0
28/03:00am 12.5 8.4 6.1 65 3.0 S 17 20 9 11 1017.8 1017.6 0.0
28/02:30am 12.9 9.2 6.1 63 3.2 SSE 15 19 8 10 1017.7 1017.5 0.0
28/02:00am 13.4 9.3 6.3 62 3.4 S 17 22 9 12 1017.8 1017.6 0.0
28/01:30am 13.8 9.8 6.8 62 3.4 S 17 22 9 12 1018.1 1017.9 0.0
28/01:00am 14.6 9.8 7.3 61 3.6 S 22 32 12 17 1018.1 1017.9 0.0
28/12:30am 14.9 10.9 9.0 68 3.0 S 20 26 11 14 1018.1 1017.9 0.0
28/12:00am 15.3 11.1 9.7 69 2.9 S 22 33 12 18 1018.0 1017.8 0.0
 
Date/Time
CDT
Tmp

°C
App
Tmp
°C
Dew
Point
°C
Rel
Hum
%
Delta-T

°C
Wind Press
QNH
hPa
Press
MSL
hPa
Rain
since
9 am
mm
Dir
 
Spd
km/h
Gust
km/h
Spd
kts
Gust
kts
27/11:30pm 15.7 11.2 10.2 70 2.9 S 24 33 13 18 1017.9 1017.7 0.0
27/11:00pm 15.9 11.4 10.2 69 3.0 S 24 35 13 19 1018.1 1017.9 0.0
27/10:30pm 15.9 11.8 10.2 69 3.0 SSW 22 30 12 16 1018.2 1018.0 0.0
27/10:00pm 15.8 11.6 9.6 66 3.2 SSW 22 32 12 17 1018.1 1017.9 0.0
27/09:30pm 15.8 11.1 9.2 65 3.4 SSW 24 35 13 19 1017.8 1017.6 0.0
27/09:00pm 16.1 11.4 9.3 64 3.5 SSW 24 37 13 20 1017.7 1017.5 0.0
27/08:31pm 16.6 11.0 8.6 59 4.1 SSW 28 46 15 25 1017.3 1017.1 0.0
27/08:30pm 16.6 10.9 8.4 58 4.2 SSW 28 44 15 24 1017.4 1017.2 0.0
27/08:00pm 17.2 11.1 8.4 56 4.5 SSW 30 43 16 23 1017.2 1017.0 0.0
27/07:40pm 17.6 11.1 8.0 53 4.9 SSW 32 50 17 27 1017.0 1016.8 0.0
27/07:30pm 18.0 11.5 8.3 53 5.0 SSW 32 43 17 23 1017.0 1016.8 0.0
27/07:00pm 19.0 12.6 8.4 50 5.5 S 32 48 17 26 1016.7 1016.5 0.0
27/06:30pm 19.2 12.1 7.9 48 5.8 SSW 35 50 19 27 1016.4 1016.2 0.0
27/06:00pm 20.0 12.9 6.5 41 6.8 S 33 48 18 26 1016.4 1016.2 0.0
27/05:30pm 20.7 13.0 5.3 36 7.6 SSW 35 52 19 28 1016.4 1016.2 0.0
27/05:02pm 20.8 14.1 5.7 37 7.5 SSW 30 48 16 26 1016.4 1016.2 0.0
27/05:00pm 20.8 13.7 5.7 37 7.5 SSW 32 48 17 26 1016.3 1016.1 0.0
27/04:30pm 21.9 14.9 5.8 35 8.1 SSW 32 46 17 25 1016.2 1016.0 0.0
27/04:15pm 22.8 16.5 5.5 32 8.7 S 28 46 15 25 1016.2 1016.0 0.0
27/04:00pm 21.4 14.3 5.5 35 7.9 SSW 32 46 17 25 1016.2 1016.0 0.0
27/03:30pm 21.8 14.3 4.7 32 8.4 SSW 33 46 18 25 1016.3 1016.1 0.0
27/03:00pm 21.8 14.4 4.1 31 8.6 S 32 43 17 23 1016.6 1016.4 0.0
27/02:33pm 21.6 14.2 4.1 31 8.5 SSW 32 56 17 30 1016.7 1016.5 0.0
27/02:30pm 22.0 15.0 4.1 31 8.7 SSW 30 43 16 23 1016.8 1016.6 0.0
27/02:07pm 22.2 15.7 4.5 31 8.7 SSW 28 50 15 27 1016.8 1016.6 0.0
27/02:00pm 21.4 15.1 3.7 31 8.5 S 26 39 14 21 1017.0 1016.8 0.0
27/01:52pm 21.7 15.1 4.2 31 8.5 SSW 28 46 15 25 1017.1 1016.9 0.0
27/01:30pm 21.2 14.9 3.7 31 8.4 S 26 43 14 23 1017.2 1017.0 0.0
27/01:16pm 21.5 14.8 3.9 31 8.5 S 28 48 15 26 1017.5 1017.3 0.0
27/01:00pm 21.0 14.3 3.7 32 8.3 S 28 41 15 22 1017.5 1017.3 0.0
27/12:30pm 20.8 13.8 3.9 33 8.1 S 30 44 16 24 1017.9 1017.7 0.0
27/12:00pm 20.3 14.0 3.7 33 7.9 S 26 39 14 21 1018.1 1017.9 0.0
27/11:31am 20.0 13.7 3.8 34 7.7 SSE 26 46 14 25 1018.4 1018.2 0.0
27/11:30am 19.6 12.9 3.8 35 7.5 SSE 28 46 15 25 1018.4 1018.2 0.0
27/11:00am 19.0 12.4 4.4 38 7.0 SSE 28 37 15 20 1018.6 1018.4 0.0
27/10:30am 19.1 12.8 3.9 36 7.2 SSE 26 35 14 19 1018.9 1018.7 0.0
27/10:00am 18.6 13.1 4.0 38 6.9 SSE 22 30 12 16 1019.0 1018.8 0.0
27/09:30am 17.6 11.9 4.8 42 6.1 SE 24 32 13 17 1019.1 1018.9 0.0
27/09:00am 16.4 11.4 4.5 45 5.6 SSE 20 32 11 17 1019.2 1019.0 0.0
27/08:30am 15.6 10.6 4.7 48 5.1 SE 20 26 11 14 1019.3 1019.1 0.0
27/08:00am 14.1 9.6 5.9 57 3.9 SE 19 24 10 13 1019.3 1019.1 0.0
27/07:30am 12.9 9.6 6.4 64 3.1 SE 13 17 7 9 1019.0 1018.8 0.0
27/07:00am 11.6 8.2 6.0 68 2.6 SSE 13 17 7 9 1018.9 1018.7 0.0
27/06:30am 10.9 6.7 5.7 70 2.4 SSE 17 20 9 11 1018.7 1018.5 0.0
27/06:00am 10.6 6.8 5.8 72 2.2 S 15 19 8 10 1018.4 1018.2 0.0
27/05:30am 10.1 6.7 5.7 74 2.0 SSE 13 15 7 8 1018.1 1017.9 0.0
27/05:00am 10.4 7.0 5.8 73 2.1 S 13 15 7 8 1018.0 1017.8 0.0
27/04:30am 10.7 7.7 6.0 73 2.2 SSE 11 15 6 8 1018.0 1017.8 0.0
27/04:00am 11.2 8.2 5.8 69 2.5 S 11 15 6 8 1017.9 1017.7 0.0
27/03:30am 11.8 8.4 6.0 67 2.7 S 13 19 7 10 1017.9 1017.7 0.0
27/03:00am 12.1 8.0 6.2 67 2.8 S 17 20 9 11 1018.0 1017.8 0.0
27/02:30am 12.5 8.1 6.6 67 2.8 S 19 24 10 13 1018.0 1017.8 0.0
27/02:00am 12.2 9.3 8.1 76 2.0 S 13 17 7 9 1018.1 1017.9 0.0
27/01:30am 11.0 8.4 7.9 81 1.5 SW 11 13 6 7 1018.3 1018.1 0.0
27/01:00am 11.2 8.2 7.7 79 1.7 SW 13 15 7 8 1018.5 1018.3 0.0
27/12:30am 11.5 8.9 7.6 77 1.9 SW 11 13 6 7 1018.5 1018.3 0.0
27/12:00am 12.3 8.9 7.8 74 2.2 SW 15 17 8 9 1018.7 1018.5 0.0
 
Date/Time
CDT
Tmp

°C
App
Tmp
°C
Dew
Point
°C
Rel
Hum
%
Delta-T

°C
Wind Press
QNH
hPa
Press
MSL
hPa
Rain
since
9 am
mm
Dir
 
Spd
km/h
Gust
km/h
Spd
kts
Gust
kts
26/11:30pm 12.7 9.7 7.6 71 2.5 SW 13 15 7 8 1018.7 1018.5 0.0
26/11:00pm 13.4 9.6 7.5 67 2.9 SW 17 20 9 11 1018.8 1018.6 0.0
26/10:30pm 13.7 9.9 7.4 65 3.1 SW 17 20 9 11 1018.8 1018.6 0.0
26/10:00pm 14.3 10.4 7.1 62 3.5 SSW 17 24 9 13 1018.8 1018.6 0.0
26/09:30pm 14.8 10.4 6.5 57 4.0 SSW 19 28 10 15 1018.5 1018.3 0.0
26/09:00pm 15.6 11.1 6.1 53 4.6 SSW 19 26 10 14 1018.3 1018.1 0.0
26/08:30pm 16.2 10.7 6.1 51 4.9 SSW 24 32 13 17 1018.1 1017.9 0.0
26/08:00pm 16.8 11.1 6.7 51 5.0 SSW 26 35 14 19 1017.8 1017.6 0.0
26/07:30pm 17.7 10.6 5.3 44 6.0 SSW 32 41 17 22 1017.5 1017.3 0.0
26/07:00pm 18.5 12.0 4.8 40 6.6 SSW 28 35 15 19 1017.2 1017.0 0.0
26/06:30pm 19.3 12.3 4.2 37 7.2 SW 30 39 16 21 1017.0 1016.8 0.0
26/06:00pm 19.8 12.8 4.1 35 7.5 SSW 30 41 16 22 1016.8 1016.6 0.0
26/05:30pm 20.7 15.0 4.7 35 7.8 SSW 24 39 13 21 1016.8 1016.6 0.0
26/05:00pm 20.5 14.6 3.8 33 8.0 SSW 24 35 13 19 1016.9 1016.7 0.0
26/04:30pm 20.0 13.7 3.9 34 7.7 S 26 37 14 20 1016.9 1016.7 0.0
26/04:00pm 20.8 15.1 3.0 31 8.4 SSW 22 33 12 18 1016.9 1016.7 0.0
26/03:30pm 20.4 14.4 3.6 33 8.0 SSW 24 33 13 18 1017.2 1017.0 0.0
26/03:00pm 21.0 15.1 3.7 32 8.3 SW 24 33 13 18 1017.1 1016.9 0.0
26/02:30pm 20.7 14.8 4.1 33 8.0 SSW 24 39 13 21 1017.2 1017.0 0.0
26/02:00pm 20.0 15.2 4.5 36 7.5 S 19 30 10 16 1017.5 1017.3 0.0
26/01:30pm 20.4 15.4 4.5 35 7.7 S 20 32 11 17 1017.8 1017.6 0.0
26/01:00pm 19.5 15.0 4.0 36 7.4 SSE 17 26 9 14 1018.0 1017.8 0.0
26/12:30pm 18.1 13.3 5.6 44 6.1 S 20 28 11 15 1018.2 1018.0 0.0
26/12:00pm 17.0 12.1 6.7 50 5.1 S 22 30 12 16 1018.5 1018.3 0.0
26/11:30am 17.7 13.2 6.8 49 5.4 SSW 20 28 11 15 1018.5 1018.3 0.0
26/11:00am 17.6 14.4 7.0 50 5.3 S 13 19 7 10 1018.7 1018.5 0.0
26/10:30am 16.4 14.2 7.9 57 4.3 SE 9 15 5 8 1018.8 1018.6 0.0
26/10:00am 16.1 13.6 8.0 58 4.1 S 11 17 6 9 1019.0 1018.8 0.0
26/09:30am 15.1 13.6 8.6 65 3.3 WSW 6 9 3 5 1019.2 1019.0 0.0
26/09:00am 14.9 14.7 9.2 68 2.9 CALM 0 0 0 0 1019.1 1018.9 0.4
26/08:30am 14.4 14.5 10.0 75 2.3 CALM 0 0 0 0 1019.0 1018.8 0.4
26/08:00am 13.4 13.6 10.5 82 1.5 CALM 0 0 0 0 1018.8 1018.6 0.4
26/07:30am 12.8 13.1 10.9 88 1.0 CALM 0 4 0 2 1018.7 1018.5 0.4
26/07:00am 12.7 11.8 11.2 91 0.8 SSE 7 11 4 6 1018.2 1018.0 0.4
26/06:30am 12.5 11.6 11.2 92 0.7 S 7 11 4 6 1018.2 1018.0 0.4
26/06:00am 12.4 10.2 10.9 90 0.8 SSE 13 17 7 9 1017.6 1017.4 0.2
26/05:30am 13.3 12.5 11.0 86 1.2 SE 6 9 3 5 1017.1 1016.9 0.0
26/05:00am 13.0 12.2 10.9 87 1.1 ESE 6 7 3 4 1016.8 1016.6 0.0
26/04:30am 13.3 11.5 10.8 85 1.3 ESE 11 13 6 7 1016.6 1016.4 0.0
26/04:00am 13.7 12.4 11.2 85 1.3 ESE 9 11 5 6 1016.3 1016.1 0.0
26/03:30am 13.8 12.4 10.8 82 1.6 SSW 9 13 5 7 1016.3 1016.1 0.0
26/03:00am 14.1 11.6 9.6 74 2.3 WSW 13 15 7 8 1016.1 1015.9 0.0
26/02:30am 14.3 11.5 8.5 68 2.9 WSW 13 15 7 8 1016.1 1015.9 0.0
26/02:00am 13.5 11.6 8.9 74 2.3 WSW 9 11 5 6 1016.2 1016.0 0.0
26/01:30am 13.7 12.3 9.4 75 2.2 W 7 9 4 5 1016.3 1016.1 0.0
26/01:00am 14.4 13.4 10.4 77 2.1 SW 6 6 3 3 1016.6 1016.4 0.0
26/12:30am 15.0 11.8 8.5 65 3.3 SW 15 22 8 12 1016.7 1016.5 0.0
26/12:00am 15.1 12.4 7.4 60 3.8 WSW 11 11 6 6 1016.7 1016.5 0.0
 
Date/Time
CDT
Tmp

°C
App
Tmp
°C
Dew
Point
°C
Rel
Hum
%
Delta-T

°C
Wind Press
QNH
hPa
Press
MSL
hPa
Rain
since
9 am
mm
Dir
 
Spd
km/h
Gust
km/h
Spd
kts
Gust
kts
25/11:30pm 14.9 11.9 7.9 63 3.5 SW 13 15 7 8 1016.7 1016.5 0.0
25/11:00pm 14.4 11.2 6.8 60 3.7 SW 13 17 7 9 1016.6 1016.4 0.0
25/10:30pm 15.7 11.1 6.7 55 4.4 SW 20 24 11 13 1016.6 1016.4 0.0
25/10:00pm 16.0 12.5 7.4 56 4.3 SW 15 19 8 10 1016.3 1016.1 0.0
25/09:30pm 14.9 11.7 6.9 58 3.9 SSW 13 17 7 9 1016.0 1015.8 0.0
25/09:00pm 15.5 10.9 6.7 55 4.3 SSW 20 26 11 14 1015.7 1015.5 0.0
25/08:30pm 16.2 10.2 7.1 55 4.5 SSW 28 39 15 21 1015.3 1015.1 0.0
25/08:00pm 16.9 10.9 7.1 52 4.9 SSW 28 43 15 23 1015.0 1014.8 0.0
25/07:30pm 17.5 10.5 5.8 46 5.7 SSW 32 46 17 25 1014.7 1014.5 0.0
25/07:00pm 18.5 11.4 5.3 42 6.4 SSW 32 43 17 23 1014.4 1014.2 0.0
25/06:30pm 18.2 11.0 5.7 44 6.1 SSW 33 46 18 25 1014.1 1013.9 0.0
25/06:00pm 19.4 11.7 6.9 44 6.3 SSW 37 56 20 30 1013.9 1013.7 0.0
25/05:50pm 19.9 12.8 6.3 41 6.8 SSW 33 52 18 28 1013.8 1013.6 0.0
25/05:30pm 20.7 13.6 6.4 39 7.2 S 33 50 18 27 1013.8 1013.6 0.0

Latest Capital City Observations: Canberra | Sydney | Melbourne | Brisbane | Adelaide | Perth | Hobart | Darwin

Other Formats:

Comma delimited format used in spreadsheet applications
http://www.bom.gov.au/fwo/IDS60901/IDS60901.95818.axf

JavaScript Object Notation format (JSON) in row-major order
http://www.bom.gov.au/fwo/IDS60901/IDS60901.95818.json